createdAt,value
2024-01-06T00:02:10.171Z,-2.00
2024-01-06T00:04:36.901Z,-2.00
2024-01-06T00:07:03.722Z,-2.00
2024-01-06T00:09:30.508Z,-2.00
2024-01-06T00:11:57.241Z,-2.00
2024-01-06T00:14:24.010Z,-2.00
2024-01-06T00:16:50.876Z,-1.90
2024-01-06T00:19:18.912Z,-2.00
2024-01-06T00:21:45.933Z,-2.00
2024-01-06T00:24:12.801Z,-2.00
2024-01-06T00:26:39.587Z,-2.00
2024-01-06T00:29:06.362Z,-2.00
2024-01-06T00:31:33.296Z,-2.00
2024-01-06T00:34:00.196Z,-2.00
2024-01-06T00:36:27.081Z,-2.00
2024-01-06T00:38:53.801Z,-2.00
2024-01-06T00:41:20.536Z,-2.00
2024-01-06T00:43:47.239Z,-1.90
2024-01-06T00:46:14.003Z,-2.00
2024-01-06T00:48:40.846Z,-1.90
2024-01-06T00:51:07.745Z,-1.90
2024-01-06T00:53:34.509Z,-2.00
2024-01-06T00:56:01.269Z,-2.00
2024-01-06T00:58:28.012Z,-2.00
2024-01-06T01:00:54.905Z,-2.00
2024-01-06T01:03:22.001Z,-2.00
2024-01-06T01:05:48.798Z,-1.90
2024-01-06T01:08:15.628Z,-1.90
2024-01-06T01:10:42.349Z,-2.00
2024-01-06T01:13:09.415Z,-2.00
2024-01-06T01:15:36.190Z,-2.00
2024-01-06T01:18:03.088Z,-2.00
2024-01-06T01:20:31.074Z,-2.00
2024-01-06T01:22:57.826Z,-2.00
2024-01-06T01:25:24.501Z,-2.00
2024-01-06T01:27:51.339Z,-2.00
2024-01-06T01:30:18.182Z,-2.00
2024-01-06T01:32:45.543Z,-2.00
2024-01-06T01:35:12.305Z,-2.00
2024-01-06T01:37:39.046Z,-2.10
2024-01-06T01:40:06.811Z,-2.10
2024-01-06T01:42:33.927Z,-2.10
2024-01-06T01:45:00.813Z,-2.10
2024-01-06T01:47:27.939Z,-2.10
2024-01-06T01:49:56.660Z,-2.00
2024-01-06T01:52:23.653Z,-2.10
2024-01-06T01:54:50.577Z,-2.10
2024-01-06T01:57:17.680Z,-2.10
2024-01-06T01:59:44.618Z,-2.10
2024-01-06T02:02:11.940Z,-2.10
2024-01-06T02:04:39.164Z,-2.10
2024-01-06T02:07:05.908Z,-2.10
2024-01-06T02:09:32.710Z,-2.00
2024-01-06T02:11:59.608Z,-2.10
2024-01-06T02:14:26.451Z,-2.10
2024-01-06T02:16:53.310Z,-2.10
2024-01-06T02:19:20.152Z,-2.10
2024-01-06T02:21:53.590Z,-2.10
2024-01-06T02:24:20.685Z,-2.10
2024-01-06T02:26:47.604Z,-2.10
2024-01-06T02:29:14.314Z,-2.10
2024-01-06T02:31:41.291Z,-2.10
2024-01-06T02:36:34.881Z,-2.10
2024-01-06T02:39:01.777Z,-2.10
2024-01-06T02:41:28.525Z,-2.10
2024-01-06T02:43:55.650Z,-2.10
2024-01-06T02:46:22.534Z,-2.10
2024-01-06T02:48:49.329Z,-2.10
2024-01-06T02:51:16.282Z,-2.10
2024-01-06T02:53:43.117Z,-2.10
2024-01-06T02:56:13.304Z,-2.10
2024-01-06T02:58:40.463Z,-2.10
2024-01-06T03:01:07.451Z,-2.10
2024-01-06T03:03:34.553Z,-2.00
2024-01-06T03:06:01.422Z,-2.00
2024-01-06T03:08:28.277Z,-2.00
2024-01-06T03:10:55.039Z,-2.10
2024-01-06T03:13:21.929Z,-2.10
2024-01-06T03:15:48.736Z,-2.10
2024-01-06T03:18:15.784Z,-2.10
2024-01-06T03:20:42.656Z,-2.00
2024-01-06T03:23:09.366Z,-2.10
2024-01-06T03:25:36.132Z,-2.10
2024-01-06T03:28:02.941Z,-2.10
2024-01-06T03:30:29.802Z,-2.10
2024-01-06T03:32:56.729Z,-2.10
2024-01-06T03:35:23.558Z,-2.10
2024-01-06T03:37:50.874Z,-2.10
2024-01-06T03:40:17.601Z,-2.10
2024-01-06T03:42:44.341Z,-2.10
2024-01-06T03:45:11.262Z,-2.00
2024-01-06T03:47:38.088Z,-2.00
2024-01-06T03:50:05.076Z,-2.00
2024-01-06T03:52:31.860Z,-2.00
2024-01-06T03:54:58.823Z,-2.10
2024-01-06T03:57:25.683Z,-2.10
2024-01-06T03:59:52.506Z,-2.00
2024-01-06T04:02:19.239Z,-2.10
2024-01-06T04:04:46.004Z,-2.10
2024-01-06T04:07:12.783Z,-2.10
2024-01-06T04:09:42.631Z,-2.10
2024-01-06T04:12:09.450Z,-2.10
2024-01-06T04:14:36.165Z,-2.10
2024-01-06T04:17:02.905Z,-2.10
2024-01-06T04:19:29.661Z,-2.10
2024-01-06T04:21:56.547Z,-2.10
2024-01-06T04:24:23.333Z,-2.10
2024-01-06T04:26:50.729Z,-2.10
2024-01-06T04:29:17.463Z,-2.10
2024-01-06T04:31:44.281Z,-2.10
2024-01-06T04:34:11.210Z,-2.10
2024-01-06T04:36:38.116Z,-2.10
2024-01-06T04:39:04.958Z,-2.10
2024-01-06T04:41:32.131Z,-2.10
2024-01-06T04:43:58.918Z,-2.10
2024-01-06T04:46:25.703Z,-2.10
2024-01-06T04:48:52.563Z,-2.10
2024-01-06T04:51:19.397Z,-2.10
2024-01-06T04:53:46.132Z,-2.10
2024-01-06T04:56:12.819Z,-2.10
2024-01-06T04:58:39.624Z,-2.10
2024-01-06T05:01:06.579Z,-2.10
2024-01-06T05:03:33.523Z,-2.10
2024-01-06T05:06:00.290Z,-2.10
2024-01-06T05:08:27.050Z,-2.10
2024-01-06T05:10:55.028Z,-2.10
2024-01-06T05:13:21.748Z,-2.10
2024-01-06T05:15:48.556Z,-2.10
2024-01-06T05:18:15.498Z,-2.10
2024-01-06T05:20:42.309Z,-2.10
2024-01-06T05:23:56.835Z,-2.20
2024-01-06T05:26:23.662Z,-2.20
2024-01-06T05:28:50.377Z,-2.10
2024-01-06T05:31:17.265Z,-2.20
2024-01-06T05:33:44.136Z,-2.10
2024-01-06T05:36:11.062Z,-2.20
2024-01-06T05:38:38.145Z,-2.20
2024-01-06T05:41:04.928Z,-2.20
2024-01-06T05:43:31.643Z,-2.10
2024-01-06T05:45:58.434Z,-2.20
2024-01-06T05:48:25.249Z,-2.20
2024-01-06T05:50:52.076Z,-2.20
2024-01-06T05:53:19.674Z,-2.20
2024-01-06T05:55:49.320Z,-2.20
2024-01-06T05:58:19.089Z,-2.20
2024-01-06T06:00:47.307Z,-2.20
2024-01-06T06:03:14.218Z,-2.20
2024-01-06T06:05:41.106Z,-2.10
2024-01-06T06:08:07.859Z,-2.20
2024-01-06T06:10:45.499Z,-2.20
2024-01-06T06:13:12.251Z,-2.20
2024-01-06T06:15:39.182Z,-2.10
2024-01-06T06:18:08.483Z,-2.10
2024-01-06T06:20:35.214Z,-2.10
2024-01-06T06:23:01.957Z,-2.10
2024-01-06T06:25:28.656Z,-2.10
2024-01-06T06:27:55.485Z,-2.10
2024-01-06T06:30:41.165Z,-2.10
2024-01-06T06:33:08.067Z,-2.10
2024-01-06T06:35:34.946Z,-2.10
2024-01-06T06:38:01.649Z,-2.10
2024-01-06T06:40:28.509Z,-2.10
2024-01-06T06:42:55.254Z,-2.10
2024-01-06T06:45:23.918Z,-2.10
2024-01-06T06:47:50.963Z,-2.10
2024-01-06T06:50:18.055Z,-2.10
2024-01-06T06:52:47.915Z,-2.10
2024-01-06T06:58:28.154Z,-2.10
2024-01-06T07:00:55.473Z,-2.10
2024-01-06T07:03:22.447Z,-2.00
2024-01-06T07:05:49.400Z,-2.10
2024-01-06T07:08:16.328Z,-2.10
2024-01-06T07:10:43.122Z,-2.10
2024-01-06T07:13:09.878Z,-2.10
2024-01-06T07:15:36.644Z,-2.10
2024-01-06T07:18:03.521Z,-2.10
2024-01-06T07:20:30.486Z,-2.10
2024-01-06T07:22:57.210Z,-2.10
2024-01-06T07:25:23.915Z,-2.10
2024-01-06T07:27:53.318Z,-2.10
2024-01-06T07:30:22.093Z,-2.10
2024-01-06T07:32:50.851Z,-2.10
2024-01-06T07:35:17.824Z,-2.10
2024-01-06T07:37:44.553Z,-2.10
2024-01-06T07:40:11.733Z,-2.10
2024-01-06T07:42:38.504Z,-2.10
2024-01-06T07:45:05.511Z,-2.10
2024-01-06T07:47:32.340Z,-2.10
2024-01-06T07:49:59.228Z,-2.10
2024-01-06T07:52:25.979Z,-2.10
2024-01-06T07:54:52.665Z,-2.10
2024-01-06T07:57:19.491Z,-2.10
2024-01-06T07:59:46.625Z,-2.10
2024-01-06T08:02:13.351Z,-2.10
2024-01-06T08:04:40.201Z,-2.10
2024-01-06T08:07:07.056Z,-2.10
2024-01-06T08:09:34.208Z,-2.00
2024-01-06T08:12:00.979Z,-2.00
2024-01-06T08:14:27.722Z,-2.00
2024-01-06T08:16:54.413Z,-2.00
2024-01-06T08:19:21.307Z,-2.00
2024-01-06T08:21:49.351Z,-2.00
2024-01-06T08:24:16.162Z,-2.00
2024-01-06T08:26:42.871Z,-2.00
2024-01-06T08:29:12.670Z,-1.90
2024-01-06T08:31:39.437Z,-2.00
2024-01-06T08:34:08.437Z,-1.90
2024-01-06T08:36:35.753Z,-1.90
2024-01-06T08:39:02.595Z,-1.90
2024-01-06T08:41:29.355Z,-1.90
2024-01-06T08:43:56.124Z,-1.90
2024-01-06T08:46:22.876Z,-1.90
2024-01-06T08:48:49.854Z,-1.90
2024-01-06T08:51:16.776Z,-1.90
2024-01-06T08:53:43.489Z,-1.90
2024-01-06T08:56:10.264Z,-1.90
2024-01-06T08:58:37.027Z,-1.90
2024-01-06T09:01:03.941Z,-1.90
2024-01-06T09:03:30.815Z,-1.90
2024-01-06T09:05:58.785Z,-1.90
2024-01-06T09:08:25.562Z,-1.90
2024-01-06T09:10:58.321Z,-1.80
2024-01-06T09:13:25.286Z,-1.80
2024-01-06T09:15:52.437Z,-1.80
2024-01-06T09:18:19.433Z,-1.80
2024-01-06T09:20:48.914Z,-1.80
2024-01-06T09:23:16.482Z,-1.80
2024-01-06T09:25:43.223Z,-1.80
2024-01-06T09:28:09.955Z,-1.80
2024-01-06T09:30:38.391Z,-1.80
2024-01-06T09:33:05.292Z,-1.80
2024-01-06T09:35:32.016Z,-1.80
2024-01-06T09:37:58.829Z,-1.80
2024-01-06T09:40:25.688Z,-1.80
2024-01-06T09:42:55.601Z,-1.80
2024-01-06T09:45:22.607Z,-1.80
2024-01-06T09:47:50.344Z,-1.80
2024-01-06T09:50:20.658Z,-1.80
2024-01-06T09:52:54.994Z,-1.90
2024-01-06T09:55:30.203Z,-1.90
2024-01-06T09:57:57.058Z,-1.80
2024-01-06T10:00:23.952Z,-1.80
2024-01-06T10:02:51.972Z,-1.80
2024-01-06T10:05:19.104Z,-1.80
2024-01-06T10:07:46.291Z,-1.80
2024-01-06T10:10:13.349Z,-1.80
2024-01-06T10:12:40.894Z,-1.80
2024-01-06T10:15:08.509Z,-1.70
2024-01-06T10:17:42.267Z,-1.70
2024-01-06T10:20:10.585Z,-1.70
2024-01-06T10:22:42.699Z,-1.60
2024-01-06T10:25:10.493Z,-1.60
2024-01-06T10:27:40.912Z,-1.60
2024-01-06T10:30:08.640Z,-1.50
2024-01-06T10:32:36.126Z,-1.50
2024-01-06T10:35:12.984Z,-1.50
2024-01-06T10:37:42.955Z,-1.50
2024-01-06T10:40:13.738Z,-1.40
2024-01-06T10:42:41.728Z,-1.40
2024-01-06T10:45:12.264Z,-1.30
2024-01-06T10:47:39.893Z,-1.30
2024-01-06T10:50:07.795Z,-1.30
2024-01-06T10:52:36.044Z,-1.30
2024-01-06T10:55:04.010Z,-1.20
2024-01-06T10:57:33.065Z,-1.20
2024-01-06T11:00:00.438Z,-1.10
2024-01-06T11:02:27.872Z,-1.10
2024-01-06T11:04:55.004Z,-1.10
2024-01-06T11:07:22.978Z,-1.00
2024-01-06T11:10:01.406Z,-1.00
2024-01-06T11:12:28.613Z,-0.90
2024-01-06T11:14:55.640Z,-0.90
2024-01-06T11:17:44.710Z,-0.90
2024-01-06T11:20:13.240Z,-0.90
2024-01-06T11:22:41.367Z,-0.90
2024-01-06T11:25:09.629Z,-0.80
2024-01-06T11:27:37.515Z,-0.70
2024-01-06T11:30:08.399Z,-0.60
2024-01-06T11:32:37.709Z,-0.60
2024-01-06T11:35:23.202Z,-0.60
2024-01-06T11:37:50.640Z,-0.50
2024-01-06T11:40:24.808Z,-0.40
2024-01-06T11:43:12.932Z,-0.50
2024-01-06T11:45:42.473Z,-0.40
2024-01-06T11:48:13.483Z,-0.40
2024-01-06T11:50:41.042Z,-0.40
2024-01-06T11:53:08.501Z,-0.30
2024-01-06T11:55:36.030Z,-0.30
2024-01-06T11:58:04.486Z,-0.30
2024-01-06T12:00:32.138Z,-0.20
2024-01-06T12:02:59.602Z,-0.20
2024-01-06T12:05:27.745Z,-0.20
2024-01-06T12:07:55.886Z,-0.20
2024-01-06T12:10:23.150Z,-0.20
2024-01-06T12:13:03.456Z,-0.30
2024-01-06T12:15:31.143Z,-0.30
2024-01-06T12:17:58.375Z,-0.30
2024-01-06T12:20:26.004Z,-0.30
2024-01-06T12:22:53.414Z,-0.40
2024-01-06T12:25:22.169Z,-0.40
2024-01-06T12:27:49.297Z,-0.40
2024-01-06T12:30:20.368Z,-0.50
2024-01-06T12:32:50.371Z,-0.60
2024-01-06T12:35:17.508Z,-0.70
2024-01-06T12:37:46.107Z,-0.70
2024-01-06T12:40:14.079Z,-0.70
2024-01-06T12:42:40.937Z,-0.70
2024-01-06T12:45:08.215Z,-0.70
2024-01-06T12:47:35.290Z,-0.70
2024-01-06T12:50:02.105Z,-0.70
2024-01-06T12:52:28.833Z,-0.70
2024-01-06T12:54:55.591Z,-0.60
2024-01-06T12:57:22.447Z,-0.60
2024-01-06T12:59:49.383Z,-0.60
2024-01-06T13:02:16.284Z,-0.60
2024-01-06T13:04:42.991Z,-0.60
2024-01-06T13:07:09.838Z,-0.60
2024-01-06T13:09:36.617Z,-0.60
2024-01-06T13:12:03.544Z,-0.60
2024-01-06T13:14:31.285Z,-0.60
2024-01-06T13:16:58.127Z,-0.50
2024-01-06T13:19:25.199Z,-0.60
2024-01-06T13:21:51.968Z,-0.60
2024-01-06T13:24:18.752Z,-0.60
2024-01-06T13:26:45.618Z,-0.50
2024-01-06T13:29:12.389Z,-0.50
2024-01-06T13:31:40.134Z,-0.50
2024-01-06T13:34:07.988Z,-0.50
2024-01-06T13:36:34.849Z,-0.60
2024-01-06T13:39:01.731Z,-0.60
2024-01-06T13:41:28.462Z,-0.60
2024-01-06T13:43:55.724Z,-0.60
2024-01-06T13:46:22.474Z,-0.70
2024-01-06T13:48:49.321Z,-0.70
2024-01-06T13:51:16.273Z,-0.70
2024-01-06T13:53:43.405Z,-0.70
2024-01-06T13:56:10.212Z,-0.70
2024-01-06T13:58:37.222Z,-0.80
2024-01-06T14:01:04.446Z,-0.80
2024-01-06T14:03:31.455Z,-0.80
2024-01-06T14:05:58.289Z,-0.80
2024-01-06T14:08:25.432Z,-0.80
2024-01-06T14:10:52.193Z,-0.80
2024-01-06T14:13:18.883Z,-0.80
2024-01-06T14:15:45.673Z,-0.80
2024-01-06T14:18:15.511Z,-0.80
2024-01-06T14:20:42.367Z,-0.80
2024-01-06T14:23:11.188Z,-0.80
2024-01-06T14:25:37.941Z,-0.80
2024-01-06T14:28:05.028Z,-0.70
2024-01-06T14:30:31.900Z,-0.80
2024-01-06T14:32:58.881Z,-0.80
2024-01-06T14:35:25.633Z,-0.80
2024-01-06T14:37:53.989Z,-0.90
2024-01-06T14:40:20.775Z,-0.90
2024-01-06T14:42:47.528Z,-0.90
2024-01-06T14:45:15.313Z,-0.90
2024-01-06T14:47:42.145Z,-1.00
2024-01-06T14:50:09.035Z,-1.00
2024-01-06T14:52:35.756Z,-1.00
2024-01-06T14:55:02.572Z,-1.00
2024-01-06T14:57:29.396Z,-1.00
2024-01-06T14:59:56.099Z,-1.00
2024-01-06T15:05:46.786Z,-1.00
2024-01-06T15:08:14.012Z,-1.10
2024-01-06T15:10:40.813Z,-1.10
2024-01-06T15:13:07.734Z,-1.10
2024-01-06T15:15:34.554Z,-1.10
2024-01-06T15:18:01.401Z,-1.20
2024-01-06T15:20:28.899Z,-1.20
2024-01-06T15:22:55.593Z,-1.20
2024-01-06T15:25:22.370Z,-1.20
2024-01-06T15:27:49.140Z,-1.20
2024-01-06T15:30:17.361Z,-1.20
2024-01-06T15:32:44.373Z,-1.30
2024-01-06T15:35:11.261Z,-1.30
2024-01-06T15:37:37.988Z,-1.30
2024-01-06T15:40:05.819Z,-1.30
2024-01-06T15:42:35.727Z,-1.40
2024-01-06T15:45:02.776Z,-1.40
2024-01-06T15:47:29.515Z,-1.40
2024-01-06T15:49:56.348Z,-1.40
2024-01-06T15:52:24.087Z,-1.50
2024-01-06T15:54:51.007Z,-1.50
2024-01-06T15:57:17.877Z,-1.60
2024-01-06T15:59:45.042Z,-1.60
2024-01-06T16:02:12.379Z,-1.60
2024-01-06T16:04:39.110Z,-1.60
2024-01-06T16:07:08.756Z,-1.70
2024-01-06T16:09:35.587Z,-1.70
2024-01-06T16:12:03.712Z,-1.70
2024-01-06T16:14:32.662Z,-1.80
2024-01-06T16:17:01.298Z,-1.80
2024-01-06T16:19:28.688Z,-1.80
2024-01-06T16:22:07.145Z,-1.80
2024-01-06T16:24:41.534Z,-1.80
2024-01-06T16:27:08.324Z,-1.80
2024-01-06T16:29:36.438Z,-1.80
2024-01-06T16:32:03.244Z,-1.90
2024-01-06T16:34:30.070Z,-1.90
2024-01-06T16:36:57.404Z,-1.90
2024-01-06T16:39:24.837Z,-1.90
2024-01-06T16:41:52.083Z,-1.90
2024-01-06T16:44:19.272Z,-1.80
2024-01-06T16:46:45.968Z,-1.80
2024-01-06T16:49:12.772Z,-1.80
2024-01-06T16:51:39.540Z,-1.90
2024-01-06T16:54:06.957Z,-1.90
2024-01-06T16:56:33.709Z,-1.90
2024-01-06T16:59:00.512Z,-1.90
2024-01-06T17:01:27.590Z,-1.90
2024-01-06T17:03:55.577Z,-1.90
2024-01-06T17:06:22.413Z,-1.90
2024-01-06T17:08:49.128Z,-2.00
2024-01-06T17:11:15.994Z,-2.00
2024-01-06T17:13:42.680Z,-2.00
2024-01-06T17:16:09.958Z,-1.90
2024-01-06T17:18:36.805Z,-1.90
2024-01-06T17:21:03.690Z,-1.90
2024-01-06T17:23:30.449Z,-1.90
2024-01-06T17:25:57.217Z,-1.90
2024-01-06T17:28:23.949Z,-2.00
2024-01-06T17:30:50.784Z,-2.00
2024-01-06T17:33:17.719Z,-2.00
2024-01-06T17:35:45.674Z,-2.00
2024-01-06T17:38:12.422Z,-2.00
2024-01-06T17:40:39.165Z,-2.00
2024-01-06T17:43:05.943Z,-2.00
2024-01-06T17:45:32.781Z,-2.00
2024-01-06T17:47:59.557Z,-2.00
2024-01-06T17:50:26.375Z,-2.00
2024-01-06T17:52:53.598Z,-2.00
2024-01-06T17:55:20.311Z,-2.00
2024-01-06T17:57:47.042Z,-2.00
2024-01-06T18:00:14.904Z,-2.00
2024-01-06T18:02:44.397Z,-2.00
2024-01-06T18:05:14.466Z,-2.00
2024-01-06T18:07:41.451Z,-1.90
2024-01-06T18:10:10.338Z,-1.90
2024-01-06T18:12:37.451Z,-2.00
2024-01-06T18:15:05.607Z,-2.00
2024-01-06T18:17:35.247Z,-2.00
2024-01-06T18:20:04.713Z,-2.00
2024-01-06T18:22:32.182Z,-2.00
2024-01-06T18:24:59.077Z,-2.00
2024-01-06T18:27:25.949Z,-2.00
2024-01-06T18:29:52.709Z,-2.00
2024-01-06T18:32:19.409Z,-2.00
2024-01-06T18:34:47.379Z,-2.00
2024-01-06T18:37:14.475Z,-2.00
2024-01-06T18:39:41.558Z,-2.00
2024-01-06T18:42:12.644Z,-2.00
2024-01-06T18:44:39.642Z,-2.00
2024-01-06T18:47:09.681Z,-2.00
2024-01-06T18:49:36.833Z,-2.10
2024-01-06T18:52:03.863Z,-2.10
2024-01-06T18:54:34.768Z,-2.10
2024-01-06T18:57:05.316Z,-2.20
2024-01-06T18:59:32.033Z,-2.20
2024-01-06T19:01:58.852Z,-2.20
2024-01-06T19:04:25.635Z,-2.20
2024-01-06T19:06:52.668Z,-2.30
2024-01-06T19:09:19.460Z,-2.30
2024-01-06T19:11:46.350Z,-2.30
2024-01-06T19:14:13.045Z,-2.30
2024-01-06T19:16:43.080Z,-2.30
2024-01-06T19:19:10.238Z,-2.30
2024-01-06T19:21:37.081Z,-2.40
2024-01-06T19:24:04.447Z,-2.30
2024-01-06T19:26:31.170Z,-2.30
2024-01-06T19:28:57.870Z,-2.30
2024-01-06T19:31:25.591Z,-2.30
2024-01-06T19:33:56.217Z,-2.30
2024-01-06T19:36:23.804Z,-2.20
2024-01-06T19:38:50.576Z,-2.30
2024-01-06T19:41:17.399Z,-2.30
2024-01-06T19:43:44.223Z,-2.20
2024-01-06T19:46:11.378Z,-2.20
2024-01-06T19:48:38.718Z,-2.20
2024-01-06T19:51:05.922Z,-2.20
2024-01-06T19:53:32.729Z,-2.20
2024-01-06T19:56:00.716Z,-2.20
2024-01-06T19:58:27.462Z,-2.20
2024-01-06T20:00:54.222Z,-2.20
2024-01-06T20:03:21.206Z,-2.20
2024-01-06T20:05:47.996Z,-2.30
2024-01-06T20:08:14.704Z,-2.30
2024-01-06T20:10:41.479Z,-2.30
2024-01-06T20:13:08.440Z,-2.30
2024-01-06T20:15:35.308Z,-2.30
2024-01-06T20:18:02.103Z,-2.40
2024-01-06T20:20:28.967Z,-2.40
2024-01-06T20:22:55.668Z,-2.40
2024-01-06T20:25:22.494Z,-2.40
2024-01-06T20:27:49.327Z,-2.40
2024-01-06T20:30:17.761Z,-2.50
2024-01-06T20:32:44.935Z,-2.50
2024-01-06T20:35:11.931Z,-2.40
2024-01-06T20:37:38.732Z,-2.50
2024-01-06T20:40:05.803Z,-2.50
2024-01-06T20:42:34.459Z,-2.50
2024-01-06T20:45:01.244Z,-2.50
2024-01-06T20:47:28.036Z,-2.50
2024-01-06T20:49:54.779Z,-2.50
2024-01-06T20:52:21.561Z,-2.60
2024-01-06T20:54:48.328Z,-2.60
2024-01-06T20:57:15.174Z,-2.60
2024-01-06T20:59:41.936Z,-2.50
2024-01-06T21:02:08.756Z,-2.60
2024-01-06T21:04:36.166Z,-2.60
2024-01-06T21:07:03.090Z,-2.50
2024-01-06T21:09:29.919Z,-2.50
2024-01-06T21:11:57.018Z,-2.50
2024-01-06T21:14:23.745Z,-2.50
2024-01-06T21:16:53.398Z,-2.40
2024-01-06T21:19:22.032Z,-2.40
2024-01-06T21:21:49.170Z,-2.40
2024-01-06T21:24:16.301Z,-2.40
2024-01-06T21:26:43.446Z,-2.40
2024-01-06T21:29:10.902Z,-2.40
2024-01-06T21:31:38.005Z,-2.40
2024-01-06T21:34:05.143Z,-2.40
2024-01-06T21:36:32.013Z,-2.30
2024-01-06T21:38:58.759Z,-2.30
2024-01-06T21:41:25.502Z,-2.30
2024-01-06T21:43:52.533Z,-2.30
2024-01-06T21:46:19.690Z,-2.30
2024-01-06T21:48:46.541Z,-2.30
2024-01-06T21:51:13.413Z,-2.30
2024-01-06T21:53:40.454Z,-2.30
2024-01-06T21:56:07.202Z,-2.20
2024-01-06T21:58:35.335Z,-2.20
2024-01-06T22:01:02.217Z,-2.20
2024-01-06T22:03:29.005Z,-2.20
2024-01-06T22:05:55.858Z,-2.20
2024-01-06T22:08:22.607Z,-2.20
2024-01-06T22:10:49.444Z,-2.20
2024-01-06T22:13:16.242Z,-2.20
2024-01-06T22:15:43.114Z,-2.20
2024-01-06T22:18:10.551Z,-2.10
2024-01-06T22:20:37.341Z,-2.20
2024-01-06T22:23:04.331Z,-2.10
2024-01-06T22:25:31.032Z,-2.10
2024-01-06T22:27:57.814Z,-2.10
2024-01-06T22:30:24.644Z,-2.10
2024-01-06T22:32:51.553Z,-2.10
2024-01-06T22:35:18.415Z,-2.10
2024-01-06T22:37:46.486Z,-2.10
2024-01-06T22:40:13.370Z,-2.10
2024-01-06T22:42:40.102Z,-2.10
2024-01-06T22:45:06.912Z,-2.10
2024-01-06T22:47:33.919Z,-2.10
2024-01-06T22:50:00.765Z,-2.10
2024-01-06T22:52:27.633Z,-2.10
2024-01-06T22:54:54.414Z,-2.10
2024-01-06T22:57:21.245Z,-2.10
2024-01-06T22:59:48.192Z,-2.10
2024-01-06T23:02:15.253Z,-2.10
2024-01-06T23:04:42.112Z,-2.10
2024-01-06T23:07:08.896Z,-2.10
2024-01-06T23:09:35.679Z,-2.10
2024-01-06T23:12:02.411Z,-2.10
2024-01-06T23:14:29.131Z,-2.10
2024-01-06T23:16:55.908Z,-2.10
2024-01-06T23:19:22.830Z,-2.10
2024-01-06T23:21:49.700Z,-2.10
2024-01-06T23:24:19.506Z,-2.10
2024-01-06T23:26:46.362Z,-2.10
2024-01-06T23:29:13.072Z,-2.10
2024-01-06T23:31:39.907Z,-2.10
2024-01-06T23:34:10.000Z,-2.10
2024-01-06T23:36:45.091Z,-2.10
2024-01-06T23:39:11.824Z,-2.10
2024-01-06T23:41:38.560Z,-2.10
2024-01-06T23:44:05.249Z,-2.10
2024-01-06T23:46:31.972Z,-2.10
2024-01-06T23:48:58.747Z,-2.10
2024-01-06T23:51:27.464Z,-2.10
2024-01-06T23:53:54.198Z,-2.10
2024-01-06T23:56:21.328Z,-2.10
2024-01-06T23:58:48.234Z,-2.10
